Flight Track Log - Related Links

Times and Time Zones

All times are in EDT time to prevent confusion due to time zone crossing. See the UAL1586 flight status page for this flight to view local times or setup timezone preferences in your user account.

Time Position Orientation Groundspeed Altitude Reporting Facility
EDT Latitude Longitude Course Direction KTS MPH feet Rate Location/Type
Sun 01:47:27 PM 40.3784 -74.1937 159° South 273 314 6,000  Level FlightAware ADS-B (KWWD)
Sun 01:47:35 PM 40.3685 -74.1909 171° South 265 305 6,100 1,818 Climbing FlightAware ADS-B (KWWD)
Sun 01:48:00 PM 40.3367 -74.1874 176° South 263 303 7,000 2,550 Climbing FlightAware ADS-B (KWWD)
Sun 01:48:15 PM 40.3348 -74.1872 176° South 271 312 7,800 2,714 Climbing FlightAware ADS-B (KPHL)
Sun 01:48:42 PM 40.2844 -74.1823 176° South 279 321 8,900 2,739 Climbing FlightAware ADS-B (KWWD)
Sun 01:49:01 PM 40.3171 -74.1854 176° South 288 331 9,900 2,000 Climbing FlightAware ADS-B (KPHL)
Sun 01:49:42 PM 40.2032 -74.1744 176° South 306 352 10,900 1,200 Climbing FlightAware ADS-B (KWWD)
Sun 01:50:11 PM 40.1597 -74.1578 146° Southeast 349 402 11,300 923 Climbing FlightAware ADS-B (KWWD)
Sun 01:50:21 PM 40.1490 -74.1436 127° Southeast 372 428 11,500 2,308 Climbing FlightAware ADS-B (KWWD)
Sun 01:50:37 PM 40.1374 -74.1088 105° East 372 428 12,300 2,353 Climbing FlightAware ADS-B (KWWD)
Sun 01:51:12 PM 40.1208 -74.0322 108° East 387 445 13,500 2,123 Climbing FlightAware ADS-B (KWWD)
Sun 01:51:42 PM 40.1040 -73.9641 107° East 394 453 14,600 2,077 Climbing FlightAware ADS-B (KWWD)
Sun 01:52:30 PM 40.0771 -73.8552 107° East 405 466 16,200 2,060 Climbing FlightAware ADS-B (KWWD)
Sun 01:52:49 PM 40.0665 -73.8117 108° East 412 474 16,900 2,526 Climbing FlightAware ADS-B (KSNC)
Sun 01:53:08 PM 40.0556 -73.7666 108° East 418 481 17,800 1,969 Climbing FlightAware ADS-B (KPHL)
Sun 01:53:53 PM 40.0290 -73.6569 107° East 416 479 19,000 1,683 Climbing FlightAware ADS-B (KWWD)
Sun 01:54:30 PM 40.0065 -73.5648 108° East 429 494 20,100 1,680 Climbing FlightAware ADS-B (KWWD)
Sun 01:54:43 PM 39.9970 -73.5357 121° Southeast 429 494 20,400 1,680 Climbing FlightAware ADS-B (KSNC)
Sun 01:54:55 PM 39.9819 -73.5118 136° Southeast 423 487 20,800 1,929 Climbing FlightAware ADS-B (KSNC)
Sun 01:55:11 PM 39.9559 -73.4887 153° Southeast 417 480 21,300 1,787 Climbing FlightAware ADS-B (KWWD)
Sun 01:55:42 PM 39.9013 -73.4597 158° South 418 481 22,200 1,545 Climbing FlightAware ADS-B (KWWD)
Sun 01:56:17 PM 39.8385 -73.4255 157° South 424 488 23,000 1,371 Climbing FlightAware ADS-B (KSNC)
Sun 01:56:52 PM 39.7741 -73.3901 157° South 424 488 23,800 1,292 Climbing FlightAware ADS-B (KWWD)
Sun 01:57:22 PM 39.7185 -73.3595 157° South 438 504 24,400 1,324 Climbing FlightAware ADS-B (KWWD)
Sun 01:58:00 PM 39.6472 -73.3204 157° South 435 501 25,300 1,350 Climbing FlightAware ADS-B (KWWD)
Sun 01:58:42 PM 39.5684 -73.2773 156° South 438 504 26,200 1,131 Climbing FlightAware ADS-B (KWWD)
Sun 02:00:02 PM 39.4127 -73.1921 157° South 451 519 27,600 1,031 Climbing FlightAware ADS-B (KWWD)
Sun 02:00:50 PM 39.3188 -73.1416 157° South 458 527 28,400 1,000 Climbing FlightAware ADS-B (KWWD)
Sun 02:01:26 PM 39.2463 -73.1026 157° South 471 542 29,000 889 Climbing FlightAware ADS-B (KWWD)
Sun 02:02:11 PM 39.1561 -73.0541 157° South 476 548 29,600 867 Climbing FlightAware ADS-B (KSNC)
Sun 02:02:56 PM 39.0711 -73.0085 157° South 478 550 30,300 1,000 Climbing FlightAware ADS-B (KSNC)
Sun 02:03:29 PM 38.9976 -72.9691 157° South 479 551 30,900 1,026 Climbing FlightAware ADS-B (KSNC)
Sun 02:04:12 PM 38.9082 -72.9214 157° South 473 544 31,600 1,054 Climbing FlightAware ADS-B (KWWD)
Sun 02:04:43 PM 38.8445 -72.8874 157° South 471 542 32,200 1,082 Climbing FlightAware ADS-B (KWWD)
Sun 02:05:13 PM 38.7937 -72.8603 158° South 478 550 32,700 600 Climbing FlightAware ADS-B (KSNC)
Sun 02:06:03 PM 38.6823 -72.8013 157° South 474 545 33,000 205 Climbing FlightAware ADS-B (KWWD)
Sun 02:06:41 PM 38.6051 -72.7604 158° South 474 545 33,000  Level FlightAware ADS-B (KWWD)
Sun 02:07:20 PM 38.5258 -72.7187 158° South 473 544 33,000  Level FlightAware ADS-B (KWWD)
Sun 02:07:51 PM 38.4634 -72.6859 158° South 472 543 33,000  Level FlightAware ADS-B (KWWD)
Sun 02:08:32 PM 38.3813 -72.6426 158° South 472 543 33,000  Level FlightAware ADS-B (KWWD)
Sun 02:09:19 PM 38.2875 -72.5934 157° South 469 540 33,000  Level FlightAware ADS-B (KWWD)
Sun 02:10:23 PM 38.1583 -72.5259 158° South 467 537 33,000  Level FlightAware ADS-B (KWWD)
Sun 02:11:02 PM 38.0801 -72.4854 158° South 466 536 33,000  Level FlightAware ADS-B (KWWD)
Sun 02:11:55 PM 37.9754 -72.4312 158° South 467 537 33,000  Level FlightAware ADS-B (KWWD)
Sun 02:12:57 PM 37.8479 -72.3808 158° South 467 537 33,000  Level FlightAware ADS-B (KWWD)
Sun 02:13:08 PM 37.8223 -72.3793 179° South 470 541 33,000  Level FlightAware ADS-B (KWWD)
Sun 02:13:38 PM 37.7570 -72.3800 181° South 463 533 33,000  Level FlightAware ADS-B (KWWD)
Sun 02:14:22 PM 37.6598 -72.3814 181° South 464 534 33,000  Level FlightAware ADS-B (KWWD)
Sun 02:15:01 PM 37.5753 -72.3827 181° South 468 539 33,000  Level FlightAware ADS-B (KWWD)
Sun 02:16:21 PM 37.4444 -72.3861 181° South 459 528 33,000  Level New York Center
Sun 02:17:23 PM 37.3044 -72.3908 182° South 471 542 33,000  Level New York Center
Sun 02:18:20 PM 37.1689 -72.3906 180° South 477 549 33,000 -50 Level New York Center
Sun 02:19:23 PM 37.0417 -72.3928 181° South 472 543 32,900  Descending New York Center
Sun 02:20:21 PM 36.9081 -72.3950 181° South 472 543 33,000 50 Climbing New York Center
Sun 02:21:23 PM 36.7744 -72.3947 180° South 472 543 33,000  Level New York Center
Sun 02:22:20 PM 36.6347 -72.3944 180° South 472 543 33,000  Level New York Center
Sun 02:23:21 PM 36.5094 -72.3994 182° South 480 552 33,000  Level New York Center
Sun 02:24:22 PM 36.3822 -72.3992 180° South 475 547 33,000  Level New York Center
Sun 02:25:21 PM 36.2425 -72.4014 181° South 484 557 33,000 -49 Level New York Center
Sun 02:26:24 PM 36.1111 -72.3983 179° South 490 564 32,900  Descending New York Center
Sun 02:27:21 PM 35.9711 -72.4031 182° South 490 564 33,000 51 Climbing New York Center
Sun 02:28:22 PM 35.8314 -72.4053 181° South 495 570 33,000  Level New York Center
Sun 02:29:22 PM 35.6978 -72.4050 180° South 495 570 33,000  Level New York Center
Sun 02:30:21 PM 35.5603 -72.4044 180° South 495 570 33,000  Level New York Center
Sun 02:31:20 PM 35.4203 -72.4067 181° South 495 570 33,000 -50 Level New York Center
Sun 02:32:21 PM 35.2847 -72.4089 181° South 495 570 32,900  Descending New York Center
Sun 02:33:23 PM 35.1472 -72.4058 179° South 495 570 33,000 50 Climbing New York Center
Sun 02:34:21 PM 34.9906 -72.4078 181° South 500 575 33,000  Level New York Center
Sun 02:35:22 PM 34.8489 -72.4022 178° South 500 575 33,000  Level New York Center
Sun 02:36:23 PM 34.7092 -72.3992 179° South 500 575 33,000  Level New York Center
Sun 02:37:11 PM 35.0500 -72.4167 175° South 478 550 33,000  Level New York Oceanic (ODAPS)
Sun 02:42:55 PM 33.9833 -72.3000 167° South 479 551 33,000  Level New York Oceanic (ODAPS)
Sun 03:29:23 PM 28.9000 -70.9833 168° South 476 548 33,000  Level New York Oceanic (ODAPS)
Sun 03:50:46 PM 25.2778 -70.1194 156° South 464 534 33,000  Level Miami Center
Sun 03:51:00 PM 25.2602 -70.1103 168° South 476 548 33,000  Level FlightAware Transoceanic
Sun 03:51:48 PM 25.1469 -70.0853 167° South 490 564 33,000  Level Miami Center
Sun 03:52:00 PM 25.1301 -70.0801 168° South 476 548 33,000  Level FlightAware Transoceanic
Sun 03:52:50 PM 25.0172 -70.0539 168° South 487 560 33,000  Level Miami Center
Sun 03:53:00 PM 25.0000 -70.0500 156° South 476 548 33,000  Level FlightAware Transoceanic
Sun 03:53:52 PM 24.8967 -70.0014 158° South 472 543 33,000  Level Miami Center
Sun 03:54:00 PM 24.8799 -69.9920 156° South 476 548 33,000  Level FlightAware Transoceanic
Sun 03:54:54 PM 24.7775 -69.9458 157° South 469 540 33,000  Level Miami Center
Sun 03:55:00 PM 24.7597 -69.9342 156° South 476 548 33,000  Level FlightAware Transoceanic
Sun 03:55:56 PM 24.6583 -69.8872 156° South 468 539 33,000  Level Miami Center
Sun 03:56:00 PM 24.6395 -69.8765 156° South 476 548 33,000  Level FlightAware Transoceanic
Sun 03:56:58 PM 24.5144 -69.8206 157° South 468 539 33,000  Level Miami Center
Sun 03:58:00 PM 24.3947 -69.7628 156° South 467 537 33,000  Level Miami Center
Sun 03:59:02 PM 24.2744 -69.7050 156° South 467 537 33,000  Level Miami Center
Sun 04:00:04 PM 24.1539 -69.6464 156° South 468 539 33,000  Level Miami Center
Sun 04:01:06 PM 24.0328 -69.5889 157° South 468 539 33,000  Level Miami Center
Sun 04:02:08 PM 23.9125 -69.5322 157° South 468 539 33,000  Level Miami Center
Sun 04:03:09 PM 23.7681 -69.4633 156° South 468 539 33,000  Level Miami Center
Sun 04:04:11 PM 23.6467 -69.4081 157° South 468 539 33,000  Level Miami Center
Sun 04:05:13 PM 23.5242 -69.3500 157° South 469 540 33,000  Level Miami Center
Sun 04:06:15 PM 23.4022 -69.2917 156° South 470 541 33,000  Level Miami Center
Sun 04:07:17 PM 23.2797 -69.2325 156° South 473 544 33,000  Level Miami Center
Sun 04:08:19 PM 23.1553 -69.1742 157° South 476 548 33,000  Level Miami Center
Sun 04:09:21 PM 23.0331 -69.1172 157° South 478 550 33,000  Level Miami Center
Sun 04:10:23 PM 22.8869 -69.0489 157° South 478 550 33,000  Level Miami Center
Sun 04:11:26 PM 22.7664 -68.9919 156° South 477 549 33,000  Level Miami Center
Sun 04:12:28 PM 22.6442 -68.9347 157° South 477 549 33,000  Level Miami Center
Sun 04:13:30 PM 22.5067 -68.8700 156° South 490 564 33,000  Level Miami Center
Sun 04:14:32 PM 22.3994 -68.8219 157° South 470 541 33,000  Level Miami Center
Sun 04:15:34 PM 22.2811 -68.7656 156° South 460 529 33,000  Level Miami Center
Sun 04:16:36 PM 22.1589 -68.7094 157° South 461 531 33,000  Level Miami Center
Sun 04:17:38 PM 22.0103 -68.6414 157° South 469 540 33,000  Level Miami Center
Sun 04:18:40 PM 21.8850 -68.5836 157° South 475 547 33,000  Level Miami Center
Sun 04:19:42 PM 21.7633 -68.5275 157° South 475 547 33,000  Level Miami Center
Sun 04:20:44 PM 21.6406 -68.4706 157° South 475 547 33,000  Level Miami Center
Sun 04:21:46 PM 21.5197 -68.4144 157° South 475 547 33,000  Level Miami Center
Sun 04:22:48 PM 21.3972 -68.3600 158° South 475 547 33,000  Level Miami Center
Sun 04:23:50 PM 21.2531 -68.2933 157° South 475 547 33,000  Level Miami Center
Sun 04:24:53 PM 21.1344 -68.2381 157° South 472 543 33,000  Level Miami Center
Sun 04:25:55 PM 21.0125 -68.1864 158° South 471 542 33,000  Level Miami Center
Sun 04:26:57 PM 20.8867 -68.1489 164° South 470 541 33,000  Level Miami Center
Sun 04:27:59 PM 20.7636 -68.1086 163° South 469 540 33,000  Level Miami Center
Sun 04:29:01 PM 20.6383 -68.0686 163° South 469 540 33,000  Level Miami Center
Sun 04:30:04 PM 20.4917 -68.0106 160° South 471 542 33,000  Level Miami Center
Sun 04:31:06 PM 20.3856 -67.9292 144° Southeast 475 547 33,000  Level Miami Center
Sun 04:32:04 PM 20.2833 -67.8500 144° Southeast 470 541 33,000  Level San Juan Center
Sun 04:33:04 PM 20.1833 -67.7667 142° Southeast 460 529 33,000 -200 Level San Juan Center
Sun 04:34:04 PM 20.0833 -67.6833 142° Southeast 470 541 32,600 -650 Descending San Juan Center
Sun 04:35:04 PM 19.9667 -67.6000 146° Southeast 470 541 31,700 -992 Descending San Juan Center
Sun 04:36:05 PM 19.8667 -67.5167 142° Southeast 470 541 30,600 -992 Descending San Juan Center
Sun 04:37:05 PM 19.7667 -67.4333 142° Southeast 470 541 29,700 -1,000 Descending San Juan Center
Sun 04:38:05 PM 19.6667 -67.3500 142° Southeast 460 529 28,600 -1,350 Descending San Juan Center
Sun 04:39:05 PM 19.5667 -67.2667 142° Southeast 460 529 27,000 -1,400 Descending San Juan Center
Sun 04:40:05 PM 19.4667 -67.1833 142° Southeast 450 518 25,800 -1,736 Descending San Juan Center
Sun 04:41:06 PM 19.3667 -67.1000 142° Southeast 440 506 23,500 -2,150 Descending San Juan Center
Sun 04:42:05 PM 19.2667 -67.0333 148° Southeast 430 495 21,500 -2,050 Descending San Juan Center
Sun 04:43:06 PM 19.1833 -66.9500 137° Southeast 410 472 19,400 -2,083 Descending San Juan Center
Sun 04:44:06 PM 19.0667 -66.8667 146° Southeast 400 460 17,300 -2,050 Descending San Juan Center
Sun 04:45:06 PM 18.9833 -66.8000 143° Southeast 390 449 15,300 -2,000 Descending San Juan Center
Sun 04:46:06 PM 18.9000 -66.7333 143° Southeast 370 426 13,300 -1,950 Descending San Juan Center
Sun 04:47:06 PM 18.8167 -66.6667 143° Southeast 370 426 11,400 -1,350 Descending San Juan Center
Sun 04:48:06 PM 18.7500 -66.6000 137° Southeast 330 380 10,600 -950 Descending San Juan Center
Sun 04:49:06 PM 18.7000 -66.5333 128° Southeast 290 334 9,500 -1,250 Descending San Juan Center
Sun 04:50:06 PM 18.6500 -66.4667 128° Southeast 300 345 8,100 -1,300 Descending San Juan Center
Sun 04:51:06 PM 18.6000 -66.4000 128° Southeast 290 334 6,900 -1,240 Descending San Juan Center
Sun 04:52:07 PM 18.5500 -66.3333 128° Southeast 280 322 5,600 -1,041 Descending San Juan Center
Sun 04:53:07 PM 18.5000 -66.2833 137° Southeast 260 299 4,800 -950 Descending San Juan Center
Sun 04:54:07 PM 18.4667 -66.2167 118° Southeast 230 265 3,700 -900 Descending San Juan Center
Sun 04:55:07 PM 18.4333 -66.1667 125° Southeast 190 219 3,000 -800 Descending San Juan Center
Sun 04:56:07 PM 18.4333 -66.1167 90° East 160 184 2,100 -850 Descending San Juan Center
Sun 04:57:07 PM 18.4333 -66.0833 90° East 150 173 1,300 -800 Descending San Juan Center
Sun 04:58:07 PM 18.4333 -66.0333 90° East 150 173 500 -800 Descending San Juan Center

Login

Don't have an account? Register now (free) for customized features, flight alerts, and more!